createdAt,value
2018-09-08T00:03:09.995Z,8.83
2018-09-08T00:08:13.600Z,8.77
2018-09-08T00:13:29.790Z,8.57
2018-09-08T00:18:38.705Z,9.90
2018-09-08T00:23:47.591Z,6.40
2018-09-08T00:28:58.198Z,6.43
2018-09-08T00:34:01.841Z,8.73
2018-09-08T00:39:07.499Z,6.47
2018-09-08T00:44:11.529Z,7.13
2018-09-08T00:49:15.172Z,7.80
2018-09-08T00:54:19.087Z,8.40
2018-09-08T00:59:22.904Z,8.87
2018-09-08T01:04:26.534Z,6.20
2018-09-08T01:09:30.672Z,8.00
2018-09-08T01:14:34.258Z,9.87
2018-09-08T01:19:38.418Z,8.33
2018-09-08T01:24:42.072Z,7.70
2018-09-08T01:29:45.898Z,8.00
2018-09-08T01:34:50.081Z,7.33
2018-09-08T01:39:53.900Z,7.40
2018-09-08T01:44:57.488Z,6.90
2018-09-08T01:50:01.193Z,6.43
2018-09-08T01:55:07.368Z,6.37
2018-09-08T02:00:13.089Z,7.93
2018-09-08T02:05:16.733Z,6.80
2018-09-08T02:10:28.316Z,6.60
2018-09-08T02:15:32.048Z,7.70
2018-09-08T02:20:35.809Z,6.77
2018-09-08T02:25:39.553Z,8.70
2018-09-08T02:30:43.239Z,7.00
2018-09-08T02:35:46.880Z,7.27
2018-09-08T02:40:50.587Z,8.53
2018-09-08T02:45:54.291Z,8.27
2018-09-08T02:50:56.715Z,7.90
2018-09-08T02:55:59.129Z,6.50
2018-09-08T03:01:01.585Z,7.80
2018-09-08T03:06:04.675Z,8.13
2018-09-08T03:11:07.592Z,8.23
2018-09-08T03:16:10.428Z,6.87
2018-09-08T03:21:12.855Z,9.77
2018-09-08T03:26:15.390Z,11.23
2018-09-08T03:31:18.048Z,7.03
2018-09-08T03:36:20.472Z,6.80
2018-09-08T03:41:22.992Z,7.70
2018-09-08T03:46:25.701Z,6.93
2018-09-08T03:51:29.663Z,6.40
2018-09-08T03:56:32.563Z,8.40
2018-09-08T04:01:38.649Z,8.23
2018-09-08T04:07:01.391Z,6.63
2018-09-08T04:12:05.029Z,8.40
2018-09-08T04:17:08.633Z,8.00
2018-09-08T04:22:12.861Z,7.87
2018-09-08T04:27:16.505Z,8.20
2018-09-08T04:32:20.179Z,8.17
2018-09-08T04:37:26.163Z,7.83
2018-09-08T04:42:29.745Z,8.17
2018-09-08T04:47:33.333Z,9.17
2018-09-08T04:52:38.809Z,7.27
2018-09-08T04:57:42.605Z,8.70
2018-09-08T05:02:46.251Z,8.17
2018-09-08T05:09:57.733Z,8.27
2018-09-08T05:15:01.501Z,10.67
2018-09-08T05:20:05.703Z,6.20
2018-09-08T05:25:09.404Z,8.90
2018-09-08T05:30:13.396Z,8.63
2018-09-08T05:35:16.975Z,8.83
2018-09-08T05:40:20.587Z,8.03
2018-09-08T05:45:24.175Z,7.67
2018-09-08T05:50:28.160Z,7.30
2018-09-08T05:55:32.232Z,10.60
2018-09-08T06:00:39.950Z,7.70
2018-09-08T06:05:44.370Z,9.10
2018-09-08T06:10:47.919Z,7.60
2018-09-08T06:15:55.804Z,9.70
2018-09-08T06:20:59.548Z,11.97
2018-09-08T06:26:03.667Z,7.83
2018-09-08T06:31:07.511Z,8.60
2018-09-08T06:36:11.097Z,8.87
2018-09-08T06:41:14.884Z,12.03
2018-09-08T06:46:18.540Z,8.43
2018-09-08T06:51:22.979Z,7.03
2018-09-08T06:56:26.874Z,7.90
2018-09-08T07:01:30.508Z,6.60
2018-09-08T07:06:34.264Z,9.27
2018-09-08T07:11:38.236Z,10.07
2018-09-08T07:16:41.976Z,8.10
2018-09-08T07:21:47.601Z,7.23
2018-09-08T07:26:51.511Z,8.20
2018-09-08T07:32:01.877Z,6.60
2018-09-08T07:37:06.168Z,7.80
2018-09-08T07:42:16.673Z,5.53
2018-09-08T07:47:30.347Z,7.30
2018-09-08T07:52:44.956Z,5.53
2018-09-08T07:57:48.785Z,6.43
2018-09-08T08:02:52.420Z,11.80
2018-09-08T08:07:57.874Z,6.60
2018-09-08T08:13:12.523Z,4.90
2018-09-08T08:18:16.343Z,5.70
2018-09-08T08:23:20.049Z,7.00
2018-09-08T08:28:23.605Z,5.00
2018-09-08T08:33:27.554Z,8.27
2018-09-08T08:38:31.363Z,6.50
2018-09-08T08:43:35.822Z,5.80
2018-09-08T08:48:40.278Z,7.43
2018-09-08T08:53:55.771Z,11.23
2018-09-08T08:58:59.786Z,6.10
2018-09-08T09:04:03.420Z,6.73
2018-09-08T09:09:10.665Z,8.13
2018-09-08T09:14:15.032Z,5.77
2018-09-08T09:19:32.019Z,6.30
2018-09-08T09:25:01.456Z,10.43
2018-09-08T09:30:05.319Z,8.63
2018-09-08T09:35:10.581Z,7.20
2018-09-08T09:40:15.652Z,11.00
2018-09-08T09:45:19.324Z,9.83
2018-09-08T09:50:23.317Z,11.40
2018-09-08T09:55:27.692Z,11.33
2018-09-08T10:00:36.542Z,10.07
2018-09-08T10:05:40.365Z,11.17
2018-09-08T10:10:50.846Z,10.80
2018-09-08T10:15:54.571Z,14.17
2018-09-08T10:20:58.297Z,8.40
2018-09-08T10:26:02.458Z,9.33
2018-09-08T10:31:06.102Z,10.23
2018-09-08T10:36:09.722Z,10.77
2018-09-08T10:41:13.535Z,7.80
2018-09-08T10:46:17.489Z,13.60
2018-09-08T10:51:34.625Z,11.23
2018-09-08T10:56:38.980Z,9.27
2018-09-08T11:01:43.633Z,10.40
2018-09-08T11:06:47.679Z,15.23
2018-09-08T11:11:51.336Z,10.43
2018-09-08T11:16:55.719Z,9.50
2018-09-08T11:22:00.351Z,10.67
2018-09-08T11:27:04.127Z,11.50
2018-09-08T11:32:07.896Z,14.43
2018-09-08T11:37:11.579Z,12.10
2018-09-08T11:42:15.235Z,10.83
2018-09-08T11:47:18.912Z,11.27
2018-09-08T11:52:22.539Z,9.40
2018-09-08T11:57:26.427Z,15.00
2018-09-08T12:02:30.993Z,10.23
2018-09-08T12:07:34.736Z,11.93
2018-09-08T12:12:38.379Z,10.23
2018-09-08T12:17:43.201Z,9.57
2018-09-08T12:22:47.029Z,10.63
2018-09-08T12:27:51.278Z,9.43
2018-09-08T12:32:54.538Z,8.23
2018-09-08T12:37:58.144Z,8.23
2018-09-08T12:43:01.832Z,7.60
2018-09-08T12:48:06.420Z,7.10
2018-09-08T12:53:10.594Z,6.07
2018-09-08T12:58:15.451Z,6.00
2018-09-08T13:03:18.821Z,5.60
2018-09-08T13:08:22.588Z,5.47
2018-09-08T13:13:25.888Z,6.13
2018-09-08T13:18:29.521Z,5.03
2018-09-08T13:23:34.139Z,7.63
2018-09-08T13:28:39.370Z,6.27
2018-09-08T13:33:43.696Z,7.13
2018-09-08T13:38:47.321Z,7.63
2018-09-08T13:43:50.975Z,5.77
2018-09-08T13:49:00.870Z,6.80
2018-09-08T13:54:05.209Z,5.53
2018-09-08T13:59:09.403Z,4.87
2018-09-08T14:04:13.286Z,5.50
2018-09-08T14:09:16.972Z,4.53
2018-09-08T14:14:20.634Z,6.37
2018-09-08T14:19:24.276Z,10.60
2018-09-08T14:24:28.700Z,5.60
2018-09-08T14:29:34.127Z,7.10
2018-09-08T14:34:37.935Z,5.67
2018-09-08T14:39:42.002Z,6.73
2018-09-08T14:44:46.431Z,6.40
2018-09-08T14:49:50.053Z,4.90
2018-09-08T14:54:54.009Z,6.43
2018-09-08T14:59:57.864Z,5.40
2018-09-08T15:05:07.796Z,8.73
2018-09-08T15:10:11.399Z,4.73
2018-09-08T15:15:15.244Z,4.83
2018-09-08T15:20:18.842Z,5.23
2018-09-08T15:25:22.448Z,5.30
2018-09-08T15:30:26.590Z,5.37
2018-09-08T15:35:30.247Z,4.50
2018-09-08T15:40:35.717Z,5.23
2018-09-08T15:45:39.556Z,6.93
2018-09-08T15:50:43.187Z,5.63
2018-09-08T15:55:46.876Z,5.67
2018-09-08T16:00:50.982Z,5.50
2018-09-08T16:05:54.660Z,9.67
2018-09-08T16:11:01.007Z,4.63
2018-09-08T16:16:04.665Z,6.00
2018-09-08T16:21:09.042Z,5.20
2018-09-08T16:26:13.233Z,5.90
2018-09-08T16:31:16.875Z,5.20
2018-09-08T16:36:20.515Z,7.63
2018-09-08T16:41:24.100Z,5.87
2018-09-08T16:46:27.826Z,6.40
2018-09-08T16:51:31.669Z,5.30
2018-09-08T16:56:40.408Z,5.60
2018-09-08T17:01:44.050Z,6.57
2018-09-08T17:06:47.793Z,8.10
2018-09-08T17:11:55.389Z,5.10
2018-09-08T17:17:00.292Z,7.30
2018-09-08T17:22:03.993Z,7.30
2018-09-08T17:27:09.987Z,6.20
2018-09-08T17:32:13.733Z,7.13
2018-09-08T17:37:17.818Z,7.20
2018-09-08T17:42:21.555Z,14.00
2018-09-08T17:47:25.270Z,7.63
2018-09-08T17:52:29.562Z,9.80
2018-09-08T17:57:33.315Z,11.83
2018-09-08T18:02:37.072Z,16.47
2018-09-08T18:07:42.620Z,22.03
2018-09-08T18:12:46.332Z,18.20
2018-09-08T18:17:50.429Z,11.70
2018-09-08T18:22:55.215Z,21.50
2018-09-08T18:27:59.132Z,20.13
2018-09-08T18:33:02.991Z,16.50
2018-09-08T18:38:06.629Z,28.97
2018-09-08T18:43:10.220Z,30.70
2018-09-08T18:48:13.914Z,10.73
2018-09-08T18:53:18.564Z,24.23
2018-09-08T18:58:22.231Z,16.10
2018-09-08T19:03:26.204Z,19.13
2018-09-08T19:08:49.177Z,13.33
2018-09-08T19:13:53.062Z,14.00
2018-09-08T19:18:57.603Z,12.40
2018-09-08T19:24:07.415Z,12.80
2018-09-08T19:29:16.395Z,8.80
2018-09-08T19:34:20.266Z,10.87
2018-09-08T19:39:24.109Z,27.17
2018-09-08T19:44:27.849Z,12.43
2018-09-08T19:49:31.479Z,20.17
2018-09-08T19:54:35.225Z,28.70
2018-09-08T19:59:38.850Z,22.13
2018-09-08T20:04:43.598Z,12.60
2018-09-08T20:09:47.247Z,14.77
2018-09-08T20:14:51.393Z,8.10
2018-09-08T20:19:55.117Z,9.70
2018-09-08T20:24:58.647Z,17.63
2018-09-08T20:30:02.308Z,10.13
2018-09-08T20:35:06.573Z,14.47
2018-09-08T20:40:10.120Z,16.40
2018-09-08T20:45:13.945Z,16.47
2018-09-08T20:50:18.562Z,13.73
2018-09-08T20:55:23.061Z,11.53
2018-09-08T21:00:26.683Z,15.67
2018-09-08T21:05:31.322Z,19.70
2018-09-08T21:10:35.234Z,18.70
2018-09-08T21:15:38.806Z,12.93
2018-09-08T21:20:42.430Z,12.70
2018-09-08T21:25:46.330Z,11.03
2018-09-08T21:30:50.128Z,7.90
2018-09-08T21:35:55.611Z,10.30
2018-09-08T21:40:59.563Z,10.77
2018-09-08T21:46:03.156Z,12.70
2018-09-08T21:51:08.398Z,22.20
2018-09-08T21:56:12.260Z,11.60
2018-09-08T22:01:21.709Z,15.63
2018-09-08T22:06:26.917Z,8.87
2018-09-08T22:11:36.544Z,9.13
2018-09-08T22:16:40.905Z,15.30
2018-09-08T22:21:46.383Z,14.37
2018-09-08T22:26:50.306Z,10.30
2018-09-08T22:31:53.948Z,9.47
2018-09-08T22:36:57.702Z,11.30
2018-09-08T22:42:01.929Z,7.90
2018-09-08T22:47:05.519Z,11.10
2018-09-08T22:52:09.130Z,12.67
2018-09-08T22:57:13.169Z,10.90
2018-09-08T23:02:16.803Z,16.23
2018-09-08T23:07:20.958Z,30.17
2018-09-08T23:12:24.839Z,20.77
2018-09-08T23:17:28.526Z,20.10
2018-09-08T23:22:32.123Z,11.20
2018-09-08T23:27:35.737Z,12.83
2018-09-08T23:32:39.543Z,10.50
2018-09-08T23:37:43.163Z,11.77
2018-09-08T23:47:57.165Z,15.00
2018-09-08T23:53:00.762Z,13.30
2018-09-08T23:58:04.360Z,12.50
